createdAt,value
2023-05-23T00:02:16.762Z,8.98
2023-05-23T00:04:44.434Z,9.57
2023-05-23T00:07:11.844Z,9.27
2023-05-23T00:09:39.045Z,9.00
2023-05-23T00:12:07.059Z,9.23
2023-05-23T00:14:35.289Z,8.70
2023-05-23T00:17:02.644Z,8.80
2023-05-23T00:19:30.014Z,9.40
2023-05-23T00:21:58.657Z,8.90
2023-05-23T00:24:26.176Z,8.45
2023-05-23T00:26:53.515Z,9.50
2023-05-23T00:29:20.962Z,9.07
2023-05-23T00:31:48.341Z,9.15
2023-05-23T00:34:18.680Z,8.35
2023-05-23T00:36:47.843Z,8.43
2023-05-23T00:39:19.955Z,8.93
2023-05-23T00:41:51.811Z,8.95
2023-05-23T00:44:20.370Z,9.00
2023-05-23T00:46:50.066Z,8.65
2023-05-23T00:49:20.428Z,8.88
2023-05-23T00:51:49.748Z,8.52
2023-05-23T00:54:19.447Z,8.40
2023-05-23T00:56:46.978Z,8.02
2023-05-23T00:59:14.763Z,8.52
2023-05-23T01:01:42.354Z,8.20
2023-05-23T01:04:09.783Z,8.30
2023-05-23T01:06:37.683Z,8.40
2023-05-23T01:09:04.885Z,8.15
2023-05-23T01:11:37.856Z,8.48
2023-05-23T01:14:08.250Z,8.27
2023-05-23T01:16:48.886Z,8.90
2023-05-23T01:19:40.785Z,8.30
2023-05-23T01:22:25.192Z,8.98
2023-05-23T01:24:55.493Z,8.17
2023-05-23T01:27:41.608Z,8.50
2023-05-23T01:30:09.542Z,7.97
2023-05-23T01:32:38.056Z,9.00
2023-05-23T01:35:05.776Z,8.23
2023-05-23T01:37:33.120Z,8.25
2023-05-23T01:40:00.380Z,8.77
2023-05-23T01:42:28.513Z,8.70
2023-05-23T01:44:59.299Z,8.35
2023-05-23T01:47:27.399Z,8.85
2023-05-23T01:49:55.495Z,8.68
2023-05-23T01:52:23.340Z,8.45
2023-05-23T01:54:51.721Z,8.95
2023-05-23T01:57:20.369Z,8.32
2023-05-23T01:59:47.708Z,8.95
2023-05-23T02:02:14.960Z,8.50
2023-05-23T02:04:42.184Z,8.80
2023-05-23T02:07:09.356Z,8.23
2023-05-23T02:09:36.615Z,8.65
2023-05-23T02:12:03.866Z,8.43
2023-05-23T02:14:31.298Z,8.05
2023-05-23T02:16:58.573Z,8.43
2023-05-23T02:19:27.017Z,9.57
2023-05-23T02:21:54.246Z,9.18
2023-05-23T02:24:21.463Z,9.70
2023-05-23T02:26:48.603Z,8.77
2023-05-23T02:29:16.951Z,9.43
2023-05-23T02:31:44.259Z,10.45
2023-05-23T02:34:11.610Z,8.90
2023-05-23T02:36:39.305Z,9.23
2023-05-23T02:39:07.143Z,9.02
2023-05-23T02:41:34.373Z,8.98
2023-05-23T02:44:01.694Z,9.50
2023-05-23T02:46:28.947Z,9.88
2023-05-23T02:48:56.296Z,9.23
2023-05-23T02:51:23.550Z,9.52
2023-05-23T02:53:50.773Z,9.80
2023-05-23T02:56:18.912Z,9.85
2023-05-23T02:58:46.597Z,9.38
2023-05-23T03:01:13.835Z,10.10
2023-05-23T03:03:41.835Z,10.20
2023-05-23T03:06:10.653Z,9.15
2023-05-23T03:08:37.889Z,10.32
2023-05-23T03:11:05.372Z,10.30
2023-05-23T03:13:32.748Z,10.90
2023-05-23T03:16:00.008Z,10.23
2023-05-23T03:18:27.248Z,9.90
2023-05-23T03:20:54.596Z,10.40
2023-05-23T03:23:21.829Z,9.75
2023-05-23T03:25:49.701Z,9.98
2023-05-23T03:28:16.832Z,10.20
2023-05-23T03:30:44.084Z,10.90
2023-05-23T03:33:12.375Z,11.07
2023-05-23T03:35:39.766Z,11.13
2023-05-23T03:38:07.563Z,12.30
2023-05-23T03:40:34.792Z,11.18
2023-05-23T03:43:09.298Z,11.30
2023-05-23T03:45:36.595Z,11.07
2023-05-23T03:48:03.904Z,11.95
2023-05-23T03:50:31.217Z,11.43
2023-05-23T03:52:58.485Z,11.65
2023-05-23T03:55:25.816Z,11.85
2023-05-23T03:57:53.045Z,13.20
2023-05-23T04:00:20.325Z,12.77
2023-05-23T04:02:48.373Z,12.07
2023-05-23T04:05:16.198Z,12.55
2023-05-23T04:07:43.873Z,12.32
2023-05-23T04:10:11.205Z,11.10
2023-05-23T04:12:41.505Z,12.77
2023-05-23T04:15:09.124Z,13.02
2023-05-23T04:17:38.991Z,12.27
2023-05-23T04:20:07.982Z,12.50
2023-05-23T04:22:35.292Z,13.48
2023-05-23T04:25:02.472Z,12.95
2023-05-23T04:27:29.756Z,13.15
2023-05-23T04:29:58.303Z,12.88
2023-05-23T04:32:26.371Z,12.98
2023-05-23T04:34:53.702Z,13.13
2023-05-23T04:37:26.328Z,12.13
2023-05-23T04:39:53.805Z,12.90
2023-05-23T04:42:24.652Z,13.30
2023-05-23T04:44:57.529Z,13.90
2023-05-23T04:47:28.007Z,13.88
2023-05-23T04:49:57.145Z,13.60
2023-05-23T04:52:25.457Z,13.38
2023-05-23T04:54:54.134Z,12.95
2023-05-23T04:57:22.180Z,13.48
2023-05-23T04:59:49.427Z,13.85
2023-05-23T05:02:16.599Z,12.63
2023-05-23T05:04:43.787Z,13.63
2023-05-23T05:07:11.294Z,14.40
2023-05-23T05:09:38.550Z,13.68
2023-05-23T05:12:06.193Z,13.18
2023-05-23T05:14:33.408Z,13.85
2023-05-23T05:17:02.920Z,12.93
2023-05-23T05:19:30.616Z,13.98
2023-05-23T05:22:00.342Z,13.50
2023-05-23T05:24:27.899Z,13.77
2023-05-23T05:26:55.780Z,14.45
2023-05-23T05:29:23.427Z,14.38
2023-05-23T05:31:50.924Z,13.23
2023-05-23T05:34:18.387Z,13.38
2023-05-23T05:36:48.449Z,11.73
2023-05-23T05:39:15.758Z,13.00
2023-05-23T05:41:42.988Z,13.95
2023-05-23T05:44:10.710Z,13.77
2023-05-23T05:46:38.002Z,13.20
2023-05-23T05:49:05.324Z,13.68
2023-05-23T05:51:32.582Z,12.88
2023-05-23T05:53:59.840Z,14.60
2023-05-23T05:56:28.137Z,14.77
2023-05-23T05:58:55.498Z,13.57
2023-05-23T06:01:23.626Z,12.82
2023-05-23T06:03:51.063Z,12.75
2023-05-23T06:06:18.420Z,14.55
2023-05-23T06:08:45.699Z,13.50
2023-05-23T06:11:12.889Z,12.85
2023-05-23T06:13:40.092Z,13.88
2023-05-23T06:16:07.698Z,13.07
2023-05-23T06:18:35.059Z,13.38
2023-05-23T06:21:02.513Z,12.63
2023-05-23T06:23:29.709Z,14.20
2023-05-23T06:25:57.186Z,13.48
2023-05-23T06:28:24.382Z,13.45
2023-05-23T06:30:51.963Z,13.40
2023-05-23T06:33:19.130Z,13.00
2023-05-23T06:35:46.992Z,13.60
2023-05-23T06:38:15.814Z,13.45
2023-05-23T06:40:45.165Z,12.93
2023-05-23T06:43:12.722Z,13.70
2023-05-23T06:45:40.102Z,13.98
2023-05-23T06:48:07.436Z,14.73
2023-05-23T06:50:35.941Z,12.25
2023-05-23T06:53:03.274Z,13.80
2023-05-23T06:55:30.634Z,14.70
2023-05-23T06:57:57.822Z,15.05
2023-05-23T07:00:25.061Z,13.05
2023-05-23T07:02:52.394Z,14.07
2023-05-23T07:05:19.780Z,13.63
2023-05-23T07:07:47.211Z,14.65
2023-05-23T07:10:14.426Z,15.25
2023-05-23T07:12:41.796Z,16.40
2023-05-23T07:15:09.269Z,13.50
2023-05-23T07:17:36.590Z,15.02
2023-05-23T07:20:04.731Z,14.60
2023-05-23T07:22:31.934Z,14.60
2023-05-23T07:24:59.134Z,15.23
2023-05-23T07:27:27.717Z,15.98
2023-05-23T07:29:55.062Z,15.15
2023-05-23T07:32:22.286Z,14.48
2023-05-23T07:34:49.484Z,14.70
2023-05-23T07:37:16.740Z,15.13
2023-05-23T07:39:44.131Z,16.70
2023-05-23T07:42:11.962Z,14.90
2023-05-23T07:44:39.140Z,16.00
2023-05-23T07:47:07.691Z,16.70
2023-05-23T07:49:35.863Z,15.98
2023-05-23T07:52:03.101Z,15.35
2023-05-23T07:54:30.312Z,15.35
2023-05-23T07:56:57.557Z,15.38
2023-05-23T07:59:25.640Z,16.13
2023-05-23T08:01:53.037Z,15.45
2023-05-23T08:04:20.269Z,15.32
2023-05-23T08:07:03.647Z,15.65
2023-05-23T08:09:32.678Z,16.15
2023-05-23T08:12:00.841Z,15.63
2023-05-23T08:14:42.328Z,16.30
2023-05-23T08:17:15.751Z,17.17
2023-05-23T08:19:43.984Z,15.80
2023-05-23T08:22:11.245Z,15.73
2023-05-23T08:24:38.659Z,16.67
2023-05-23T08:27:08.133Z,16.15
2023-05-23T08:29:35.433Z,16.95
2023-05-23T08:32:02.717Z,16.27
2023-05-23T08:34:30.032Z,15.45
2023-05-23T08:36:57.305Z,17.30
2023-05-23T08:39:24.537Z,16.35
2023-05-23T08:41:52.333Z,17.30
2023-05-23T08:44:19.604Z,16.50
2023-05-23T08:46:49.361Z,16.73
2023-05-23T08:49:18.521Z,17.48
2023-05-23T08:51:46.411Z,16.83
2023-05-23T08:54:13.685Z,16.50
2023-05-23T08:56:41.394Z,17.70
2023-05-23T08:59:10.553Z,15.55
2023-05-23T09:01:40.016Z,17.35
2023-05-23T09:04:07.794Z,17.70
2023-05-23T09:06:35.471Z,16.70
2023-05-23T09:09:02.758Z,16.67
2023-05-23T09:11:30.028Z,17.92
2023-05-23T09:13:57.836Z,18.23
2023-05-23T09:16:25.338Z,18.48
2023-05-23T09:18:52.687Z,16.95
2023-05-23T09:21:20.469Z,17.45
2023-05-23T09:23:47.997Z,16.95
2023-05-23T09:26:15.783Z,18.17
2023-05-23T09:28:43.921Z,16.42
2023-05-23T09:31:11.234Z,16.42
2023-05-23T09:33:40.849Z,16.48
2023-05-23T09:36:08.468Z,17.23
2023-05-23T09:38:39.748Z,16.30
2023-05-23T09:41:07.240Z,16.92
2023-05-23T09:43:34.603Z,15.50
2023-05-23T09:46:02.477Z,17.60
2023-05-23T09:48:31.668Z,16.73
2023-05-23T09:50:59.852Z,17.23
2023-05-23T09:53:28.339Z,17.63
2023-05-23T09:55:56.727Z,17.52
2023-05-23T09:58:24.891Z,18.15
2023-05-23T10:00:53.314Z,19.08
2023-05-23T10:03:23.813Z,16.67
2023-05-23T10:05:52.829Z,16.30
2023-05-23T10:08:20.546Z,17.13
2023-05-23T10:10:57.337Z,16.25
2023-05-23T10:13:29.115Z,17.73
2023-05-23T10:15:59.037Z,16.90
2023-05-23T10:18:35.958Z,18.48
2023-05-23T10:21:08.635Z,16.80
2023-05-23T10:23:36.646Z,17.67
2023-05-23T10:26:05.166Z,18.48
2023-05-23T10:28:33.990Z,19.05
2023-05-23T10:31:01.260Z,19.95
2023-05-23T10:33:31.087Z,19.88
2023-05-23T10:36:04.410Z,18.17
2023-05-23T10:38:41.804Z,19.27
2023-05-23T10:41:19.485Z,18.60
2023-05-23T10:43:56.508Z,19.70
2023-05-23T10:46:23.862Z,20.02
2023-05-23T10:48:55.307Z,19.40
2023-05-23T10:51:22.871Z,19.15
2023-05-23T10:53:54.234Z,18.63
2023-05-23T10:56:25.981Z,19.25
2023-05-23T10:58:56.849Z,18.08
2023-05-23T11:01:24.322Z,17.63
2023-05-23T11:03:54.770Z,16.95
2023-05-23T11:06:44.567Z,18.05
2023-05-23T11:09:13.404Z,17.25
2023-05-23T11:11:49.738Z,17.63
2023-05-23T11:14:17.078Z,15.32
2023-05-23T11:16:46.667Z,15.05
2023-05-23T11:19:20.383Z,14.23
2023-05-23T11:21:50.879Z,14.73
2023-05-23T11:24:18.122Z,14.30
2023-05-23T11:27:01.289Z,14.07
2023-05-23T11:29:29.142Z,13.32
2023-05-23T11:31:56.953Z,14.20
2023-05-23T11:34:27.755Z,14.82
2023-05-23T11:36:55.722Z,14.25
2023-05-23T11:39:23.744Z,13.75
2023-05-23T11:42:04.151Z,12.73
2023-05-23T11:44:31.683Z,12.02
2023-05-23T11:47:06.750Z,13.88
2023-05-23T11:49:40.374Z,12.23
2023-05-23T11:52:07.972Z,14.35
2023-05-23T11:54:35.389Z,13.25
2023-05-23T11:57:03.643Z,14.55
2023-05-23T11:59:30.998Z,14.20
2023-05-23T12:01:58.259Z,13.57
2023-05-23T12:04:27.172Z,14.48
2023-05-23T12:06:54.919Z,14.80
2023-05-23T12:09:22.324Z,13.57
2023-05-23T12:11:50.415Z,13.35
2023-05-23T12:14:18.869Z,12.88
2023-05-23T12:16:47.352Z,13.95
2023-05-23T12:19:15.370Z,12.65
2023-05-23T12:22:05.401Z,12.93
2023-05-23T12:24:32.812Z,13.23
2023-05-23T12:27:01.035Z,12.30
2023-05-23T12:29:35.888Z,11.73
2023-05-23T12:32:04.641Z,11.10
2023-05-23T12:34:32.008Z,11.13
2023-05-23T12:37:14.992Z,10.57
2023-05-23T12:42:31.007Z,12.43
2023-05-23T12:44:59.085Z,12.35
2023-05-23T12:47:26.861Z,12.90
2023-05-23T12:49:54.566Z,13.88
2023-05-23T12:52:24.535Z,11.90
2023-05-23T12:54:53.279Z,11.88
2023-05-23T12:57:20.589Z,11.25
2023-05-23T12:59:47.756Z,11.50
2023-05-23T13:02:14.956Z,11.35
2023-05-23T13:04:42.167Z,11.27
2023-05-23T13:07:09.676Z,11.68
2023-05-23T13:09:37.081Z,10.35
2023-05-23T13:12:04.444Z,12.15
2023-05-23T13:14:31.596Z,11.55
2023-05-23T13:16:58.954Z,12.63
2023-05-23T13:19:28.423Z,11.30
2023-05-23T13:21:55.755Z,10.77
2023-05-23T13:24:23.130Z,12.52
2023-05-23T13:26:51.041Z,11.57
2023-05-23T13:29:18.266Z,10.80
2023-05-23T13:31:46.553Z,10.48
2023-05-23T13:34:14.281Z,10.80
2023-05-23T13:36:41.602Z,10.98
2023-05-23T13:39:08.851Z,11.80
2023-05-23T13:41:38.352Z,11.02
2023-05-23T13:44:05.657Z,11.35
2023-05-23T13:46:33.734Z,11.55
2023-05-23T13:49:08.689Z,11.88
2023-05-23T13:51:37.451Z,11.13
2023-05-23T13:54:05.812Z,12.45
2023-05-23T13:56:33.701Z,11.40
2023-05-23T13:59:01.002Z,12.10
2023-05-23T14:01:28.584Z,10.75
2023-05-23T14:03:56.399Z,11.00
2023-05-23T14:06:23.794Z,10.93
2023-05-23T14:08:51.072Z,10.55
2023-05-23T14:11:18.365Z,10.35
2023-05-23T14:13:45.547Z,9.98
2023-05-23T14:16:14.869Z,10.18
2023-05-23T14:18:42.081Z,11.00
2023-05-23T14:21:09.316Z,11.07
2023-05-23T14:23:36.908Z,11.13
2023-05-23T14:26:04.283Z,8.98
2023-05-23T14:28:31.731Z,9.35
2023-05-23T14:30:59.317Z,7.85
2023-05-23T14:33:26.843Z,8.73
2023-05-23T14:35:55.184Z,8.82
2023-05-23T14:38:22.490Z,8.07
2023-05-23T14:40:49.668Z,9.05
2023-05-23T14:43:17.022Z,9.35
2023-05-23T14:45:44.725Z,9.35
2023-05-23T14:48:13.008Z,9.60
2023-05-23T14:50:40.878Z,8.68
2023-05-23T14:53:08.533Z,9.13
2023-05-23T14:55:36.000Z,7.68
2023-05-23T14:58:04.372Z,8.77
2023-05-23T15:00:33.585Z,7.90
2023-05-23T15:03:00.947Z,8.73
2023-05-23T15:05:28.656Z,8.63
2023-05-23T15:07:57.133Z,7.80
2023-05-23T15:10:25.192Z,7.72
2023-05-23T15:12:52.607Z,8.18
2023-05-23T15:15:23.337Z,8.40
2023-05-23T15:17:51.570Z,9.38
2023-05-23T15:20:19.147Z,8.15
2023-05-23T15:22:46.349Z,8.80
2023-05-23T15:25:13.531Z,8.85
2023-05-23T15:27:41.130Z,8.57
2023-05-23T15:30:08.731Z,8.93
2023-05-23T15:32:36.111Z,8.95
2023-05-23T15:35:03.489Z,9.50
2023-05-23T15:37:30.673Z,9.35
2023-05-23T15:39:57.906Z,9.45
2023-05-23T15:42:25.099Z,9.48
2023-05-23T15:44:52.341Z,9.30
2023-05-23T15:47:21.961Z,9.05
2023-05-23T15:49:49.199Z,9.30
2023-05-23T15:52:16.430Z,9.20
2023-05-23T15:54:43.818Z,9.60
2023-05-23T15:57:11.107Z,8.38
2023-05-23T15:59:41.254Z,9.75
2023-05-23T16:02:10.219Z,8.73
2023-05-23T16:04:38.931Z,9.07
2023-05-23T16:07:09.801Z,9.00
2023-05-23T16:09:37.504Z,9.30
2023-05-23T16:12:04.970Z,8.93
2023-05-23T16:14:32.140Z,7.90
2023-05-23T16:17:02.811Z,8.38
2023-05-23T16:19:30.586Z,7.80
2023-05-23T16:21:57.799Z,7.97
2023-05-23T16:24:26.292Z,7.75
2023-05-23T16:26:53.576Z,6.57
2023-05-23T16:29:21.089Z,7.28
2023-05-23T16:31:48.438Z,7.13
2023-05-23T16:34:16.002Z,7.53
2023-05-23T16:36:43.396Z,7.63
2023-05-23T16:39:11.669Z,7.32
2023-05-23T16:41:38.969Z,7.20
2023-05-23T16:44:06.209Z,6.82
2023-05-23T16:46:33.579Z,6.85
2023-05-23T16:49:00.930Z,6.45
2023-05-23T16:51:29.977Z,6.85
2023-05-23T16:53:57.190Z,6.07
2023-05-23T16:56:24.374Z,5.65
2023-05-23T16:58:51.821Z,5.18
2023-05-23T17:01:19.979Z,5.10
2023-05-23T17:03:47.899Z,4.90
2023-05-23T17:06:15.645Z,5.30
2023-05-23T17:08:44.356Z,4.93
2023-05-23T17:11:16.181Z,4.53
2023-05-23T17:13:45.121Z,4.25
2023-05-23T17:16:13.424Z,4.38
2023-05-23T17:18:42.503Z,4.35
2023-05-23T17:21:09.793Z,4.38
2023-05-23T17:23:37.954Z,4.47
2023-05-23T17:26:05.379Z,3.95
2023-05-23T17:28:33.540Z,4.20
2023-05-23T17:31:00.999Z,4.43
2023-05-23T17:33:28.338Z,3.75
2023-05-23T17:35:55.630Z,3.67
2023-05-23T17:38:31.185Z,3.90
2023-05-23T17:40:58.499Z,3.50
2023-05-23T17:43:26.078Z,3.70
2023-05-23T17:45:53.448Z,3.05
2023-05-23T17:48:23.916Z,3.70
2023-05-23T17:50:58.627Z,3.10
2023-05-23T17:53:25.811Z,3.47
2023-05-23T17:55:53.492Z,3.10
2023-05-23T17:58:21.125Z,3.33
2023-05-23T18:00:48.834Z,5.65
2023-05-23T18:03:16.648Z,3.08
2023-05-23T18:05:44.150Z,3.95
2023-05-23T18:08:11.345Z,3.30
2023-05-23T18:10:38.551Z,2.88
2023-05-23T18:13:06.357Z,2.70
2023-05-23T18:15:33.549Z,3.35
2023-05-23T18:18:00.745Z,3.10
2023-05-23T18:20:28.062Z,3.03
2023-05-23T18:22:55.362Z,2.88
2023-05-23T18:25:28.409Z,2.60
2023-05-23T18:27:59.561Z,2.70
2023-05-23T18:30:27.588Z,2.72
2023-05-23T18:32:55.301Z,3.00
2023-05-23T18:35:23.048Z,2.65
2023-05-23T18:37:50.278Z,2.95
2023-05-23T18:40:17.658Z,2.60
2023-05-23T18:42:44.989Z,3.25
2023-05-23T18:45:12.433Z,2.38
2023-05-23T18:47:39.717Z,2.70
2023-05-23T18:50:07.725Z,2.67
2023-05-23T18:52:37.299Z,2.50
2023-05-23T18:55:05.474Z,2.90
2023-05-23T18:57:34.609Z,2.67
2023-05-23T19:00:02.872Z,3.13
2023-05-23T19:02:30.152Z,2.38
2023-05-23T19:04:57.550Z,2.70
2023-05-23T19:07:24.809Z,2.53
2023-05-23T19:09:52.143Z,2.78
2023-05-23T19:12:19.739Z,2.70
2023-05-23T19:14:47.127Z,2.50
2023-05-23T19:17:15.764Z,2.60
2023-05-23T19:19:43.244Z,2.95
2023-05-23T19:22:10.836Z,2.60
2023-05-23T19:24:38.048Z,2.63
2023-05-23T19:27:06.254Z,2.55
2023-05-23T19:29:33.467Z,2.22
2023-05-23T19:32:00.814Z,2.53
2023-05-23T19:34:28.395Z,2.63
2023-05-23T19:36:55.810Z,2.40
2023-05-23T19:39:23.443Z,2.90
2023-05-23T19:41:50.818Z,2.85
2023-05-23T19:44:18.083Z,2.35
2023-05-23T19:46:45.417Z,2.60
2023-05-23T19:49:14.535Z,2.50
2023-05-23T19:51:41.750Z,2.63
2023-05-23T19:54:09.046Z,2.50
2023-05-23T19:56:36.449Z,2.72
2023-05-23T19:59:03.657Z,2.38
2023-05-23T20:01:33.667Z,2.65
2023-05-23T20:04:01.682Z,2.70
2023-05-23T20:06:28.944Z,2.70
2023-05-23T20:08:56.139Z,2.80
2023-05-23T20:11:23.635Z,2.72
2023-05-23T20:13:50.970Z,2.90
2023-05-23T20:16:18.354Z,2.58
2023-05-23T20:18:45.811Z,2.78
2023-05-23T20:21:13.016Z,3.00
2023-05-23T20:23:43.400Z,2.70
2023-05-23T20:26:10.636Z,2.90
2023-05-23T20:28:37.854Z,2.90
2023-05-23T20:31:05.179Z,2.75
2023-05-23T20:33:34.313Z,2.92
2023-05-23T20:36:01.668Z,2.83
2023-05-23T20:38:29.095Z,2.85
2023-05-23T20:40:56.310Z,3.00
2023-05-23T20:43:23.767Z,2.70
2023-05-23T20:45:51.031Z,2.95
2023-05-23T20:48:18.225Z,3.47
2023-05-23T20:50:45.586Z,3.45
2023-05-23T20:53:12.832Z,3.13
2023-05-23T20:55:40.529Z,3.40
2023-05-23T20:58:08.789Z,3.25
2023-05-23T21:00:35.996Z,2.88
2023-05-23T21:03:03.659Z,2.67
2023-05-23T21:05:30.974Z,3.25
2023-05-23T21:07:58.224Z,3.22
2023-05-23T21:10:25.536Z,3.25
2023-05-23T21:12:52.860Z,2.75
2023-05-23T21:15:20.031Z,2.83
2023-05-23T21:17:47.494Z,2.83
2023-05-23T21:20:16.279Z,2.70
2023-05-23T21:22:43.504Z,3.35
2023-05-23T21:25:10.974Z,3.10
2023-05-23T21:27:38.625Z,3.22
2023-05-23T21:30:06.737Z,2.80
2023-05-23T21:32:33.998Z,3.00
2023-05-23T21:35:01.198Z,2.78
2023-05-23T21:37:28.489Z,3.00
2023-05-23T21:39:55.691Z,3.10
2023-05-23T21:42:24.708Z,2.78
2023-05-23T21:44:51.943Z,3.15
2023-05-23T21:47:21.372Z,3.10
2023-05-23T21:49:48.602Z,3.13
2023-05-23T21:52:15.966Z,2.95
2023-05-23T21:54:43.352Z,2.95
2023-05-23T21:57:10.541Z,3.00
2023-05-23T21:59:37.723Z,3.13
2023-05-23T22:02:05.361Z,3.00
2023-05-23T22:04:33.020Z,3.17
2023-05-23T22:07:00.220Z,3.28
2023-05-23T22:09:27.500Z,2.85
2023-05-23T22:11:54.728Z,3.28
2023-05-23T22:14:22.827Z,3.22
2023-05-23T22:16:50.294Z,3.20
2023-05-23T22:19:21.208Z,3.10
2023-05-23T22:21:48.555Z,3.00
2023-05-23T22:24:15.765Z,3.53
2023-05-23T22:26:43.001Z,3.15
2023-05-23T22:29:10.510Z,3.50
2023-05-23T22:31:37.839Z,3.15
2023-05-23T22:34:05.076Z,3.55
2023-05-23T22:36:34.332Z,3.70
2023-05-23T22:39:02.440Z,3.40
2023-05-23T22:41:29.660Z,2.80
2023-05-23T22:43:57.338Z,3.08
2023-05-23T22:46:24.584Z,3.50
2023-05-23T22:48:52.614Z,3.13
2023-05-23T22:51:19.922Z,3.40
2023-05-23T22:53:47.116Z,3.83
2023-05-23T22:56:15.510Z,3.78
2023-05-23T22:58:42.683Z,3.42
2023-05-23T23:01:10.271Z,3.28
2023-05-23T23:03:37.560Z,3.35
2023-05-23T23:06:09.296Z,3.95
2023-05-23T23:08:37.755Z,3.40
2023-05-23T23:11:05.016Z,3.00
2023-05-23T23:13:32.205Z,3.30
2023-05-23T23:15:59.386Z,3.50
2023-05-23T23:18:26.950Z,3.97
2023-05-23T23:20:57.066Z,3.70
2023-05-23T23:23:24.385Z,3.17
2023-05-23T23:25:52.382Z,3.92
2023-05-23T23:28:20.069Z,3.45
2023-05-23T23:30:47.659Z,3.90
2023-05-23T23:33:15.079Z,3.70
2023-05-23T23:35:45.684Z,3.50
2023-05-23T23:38:12.888Z,3.90
2023-05-23T23:40:40.241Z,3.60
2023-05-23T23:43:07.663Z,3.58
2023-05-23T23:45:34.845Z,3.55
2023-05-23T23:48:02.052Z,3.72
2023-05-23T23:50:31.386Z,3.78
2023-05-23T23:52:59.399Z,3.80
2023-05-23T23:55:26.633Z,3.90
2023-05-23T23:57:53.817Z,3.33
